Time;durP1;ratioP1;P1;durP2;ratioP2;P2;SDS_P1;SDS_P2;PMS_P1;PMS_P2;Temp;Humidity;BMP_temperature;BMP_pressure;BME280_temperature;BME280_humidity;BME280_pressure;Samples;Min_cycle;Max_cycle;Signal;HPM_P1;HPM_P2
2021/12/19 00:00:45;;;;;;;21.40;8.20;;;2.50;99.90;;;;;;5076615;28;20422;-73
2021/12/19 00:11:11;;;;;;;19.23;7.00;;;2.40;99.90;;;;;;5076655;28;20025;-72
2021/12/19 00:13:40;;;;;;;18.75;8.45;;;2.30;99.90;;;;;;5058452;28;20024;-72
2021/12/19 00:16:06;;;;;;;17.42;7.65;;;2.30;99.90;;;;;;5058345;28;20024;-72
2021/12/19 00:18:32;;;;;;;20.42;8.27;;;2.30;99.90;;;;;;5058706;28;20489;-72
2021/12/19 00:20:57;;;;;;;24.90;8.15;;;2.20;99.90;;;;;;5076705;28;20056;-72
2021/12/19 00:23:23;;;;;;;22.10;8.43;;;2.30;99.90;;;;;;5076373;28;20020;-72
2021/12/19 00:25:49;;;;;;;19.63;7.63;;;2.20;99.90;;;;;;5076448;28;20036;-72
2021/12/19 00:28:15;;;;;;;19.15;8.52;;;2.20;99.90;;;;;;5076123;28;20036;-72
2021/12/19 00:30:40;;;;;;;19.60;7.85;;;2.20;99.90;;;;;;5074999;28;20074;-72
2021/12/19 00:33:06;;;;;;;17.35;8.02;;;2.10;99.90;;;;;;5075634;28;20045;-72
2021/12/19 00:35:32;;;;;;;22.25;7.88;;;2.10;99.90;;;;;;5058009;28;20380;-72
2021/12/19 00:37:57;;;;;;;20.83;9.15;;;2.00;99.90;;;;;;5076431;28;20036;-72
2021/12/19 00:40:23;;;;;;;21.38;7.53;;;2.00;99.90;;;;;;5075925;28;20028;-72
2021/12/19 00:43:01;;;;;;;22.83;8.73;;;2.00;99.90;;;;;;5057862;28;20029;-72
2021/12/19 00:45:30;;;;;;;22.00;9.15;;;2.00;99.90;;;;;;5075987;28;20472;-72
2021/12/19 00:47:57;;;;;;;22.33;9.82;;;2.00;99.90;;;;;;5075672;28;20496;-71
2021/12/19 00:50:24;;;;;;;20.60;9.02;;;2.00;99.90;;;;;;5075837;28;20032;-71
2021/12/19 00:52:50;;;;;;;24.20;9.02;;;2.10;99.90;;;;;;5075642;28;20443;-72
2021/12/19 00:55:17;;;;;;;21.33;8.20;;;2.00;99.90;;;;;;5075523;28;20063;-72
2021/12/19 00:57:44;;;;;;;21.60;9.77;;;2.00;99.90;;;;;;5057690;28;20032;-71
2021/12/19 01:00:13;;;;;;;20.77;8.63;;;2.00;99.90;;;;;;5058267;28;20036;-71
2021/12/19 01:02:39;;;;;;;24.20;8.00;;;2.00;99.90;;;;;;5057469;28;20487;-72
2021/12/19 01:05:27;;;;;;;22.95;8.88;;;2.00;99.90;;;;;;5075380;28;20021;-72
2021/12/19 01:07:53;;;;;;;18.85;7.25;;;2.00;99.90;;;;;;5040312;28;20080;-72
2021/12/19 01:10:19;;;;;;;22.27;8.80;;;1.90;99.90;;;;;;5057374;28;20452;-72
2021/12/19 01:12:45;;;;;;;23.60;9.55;;;1.90;99.90;;;;;;5074970;28;20033;-71
2021/12/19 01:15:14;;;;;;;20.25;7.88;;;1.90;99.90;;;;;;5075473;28;20108;-72
2021/12/19 01:17:40;;;;;;;21.42;9.07;;;1.90;99.90;;;;;;5057145;28;20035;-71
2021/12/19 01:20:14;;;;;;;21.58;8.57;;;1.90;99.90;;;;;;5057497;28;20455;-71
2021/12/19 01:25:51;;;;;;;23.55;9.05;;;1.80;99.90;;;;;;5074667;28;20082;-71
2021/12/19 01:28:17;;;;;;;20.63;8.75;;;1.80;99.90;;;;;;5074996;28;20032;-72
2021/12/19 01:30:43;;;;;;;25.88;9.85;;;1.90;99.90;;;;;;5056894;28;20024;-71
2021/12/19 01:33:08;;;;;;;25.17;9.00;;;1.90;99.90;;;;;;5075366;28;20057;-71
2021/12/19 01:35:34;;;;;;;21.48;10.00;;;1.90;99.90;;;;;;5074539;28;20034;-71
2021/12/19 01:38:00;;;;;;;26.15;11.10;;;1.90;99.90;;;;;;5074799;28;20059;-71
2021/12/19 01:40:26;;;;;;;20.13;8.70;;;2.00;99.90;;;;;;5056840;28;20021;-71
2021/12/19 01:42:57;;;;;;;21.90;10.00;;;2.00;99.90;;;;;;5056722;28;20070;-70
2021/12/19 01:45:36;;;;;;;24.45;9.77;;;2.00;99.90;;;;;;5074624;28;20021;-71
2021/12/19 01:48:06;;;;;;;21.25;8.98;;;2.10;99.90;;;;;;5074620;28;20024;-71
2021/12/19 01:50:33;;;;;;;24.55;9.95;;;2.10;99.90;;;;;;5074501;28;20021;-71
2021/12/19 01:53:01;;;;;;;23.90;9.82;;;2.10;99.90;;;;;;5074581;28;20021;-71
2021/12/19 01:55:27;;;;;;;23.50;9.50;;;2.10;99.90;;;;;;5074273;28;20042;-71
2021/12/19 01:57:53;;;;;;;22.02;9.88;;;2.20;99.90;;;;;;5074374;28;20082;-71
2021/12/19 02:00:24;;;;;;;20.13;8.40;;;2.10;99.90;;;;;;5056475;28;20031;-71
2021/12/19 02:02:50;;;;;;;28.08;10.25;;;2.20;99.90;;;;;;5074455;28;20024;-72
2021/12/19 02:05:16;;;;;;;28.45;11.07;;;2.20;99.90;;;;;;5074265;28;20021;-71
2021/12/19 02:07:48;;;;;;;27.27;10.82;;;2.20;99.90;;;;;;5074115;28;20135;-71
2021/12/19 02:10:21;;;;;;;23.80;8.88;;;2.20;99.90;;;;;;5056463;28;20021;-71
2021/12/19 02:12:48;;;;;;;25.20;10.45;;;2.20;99.90;;;;;;5056247;28;20035;-71
2021/12/19 02:15:20;;;;;;;24.63;9.20;;;2.20;99.90;;;;;;5056245;28;20028;-71
2021/12/19 02:17:48;;;;;;;25.63;10.48;;;2.20;99.90;;;;;;5074195;28;20028;-71
2021/12/19 02:20:14;;;;;;;21.00;9.18;;;2.20;99.90;;;;;;5056089;28;20453;-71
2021/12/19 02:22:40;;;;;;;25.58;10.40;;;2.20;99.90;;;;;;5056456;28;20119;-71
2021/12/19 02:25:06;;;;;;;22.92;10.13;;;2.20;99.90;;;;;;5056016;28;20127;-71
2021/12/19 02:27:51;;;;;;;28.63;10.23;;;2.20;99.90;;;;;;5073847;28;20042;-72
2021/12/19 02:30:16;;;;;;;27.15;9.98;;;2.20;99.90;;;;;;5074135;28;20035;-72
2021/12/19 02:32:42;;;;;;;31.40;10.10;;;2.20;99.90;;;;;;5080482;28;20407;-72
2021/12/19 02:35:13;;;;;;;26.55;10.75;;;2.20;99.90;;;;;;5092837;28;20443;-72
2021/12/19 02:40:27;;;;;;;23.67;9.15;;;2.20;99.90;;;;;;5094043;28;20045;-71
2021/12/19 02:48:25;;;;;;;24.83;9.77;;;2.20;99.90;;;;;;5093662;28;20039;-71
2021/12/19 02:50:53;;;;;;;23.33;9.98;;;2.20;99.90;;;;;;5093935;28;20444;-72
2021/12/19 02:53:37;;;;;;;25.60;9.93;;;2.20;99.90;;;;;;5094668;28;20024;-71
2021/12/19 02:56:06;;;;;;;28.98;9.88;;;2.20;99.90;;;;;;5100609;28;20032;-72
2021/12/19 02:58:32;;;;;;;;;;;2.20;99.90;;;;;;5099884;28;20035;-72
2021/12/19 03:00:59;;;;;;;28.30;9.45;;;2.20;99.90;;;;;;5100618;28;19947;-72
2021/12/19 03:03:26;;;;;;;29.08;9.40;;;2.20;99.90;;;;;;5100226;28;20052;-73
2021/12/19 03:05:51;;;;;;;26.48;9.50;;;2.20;99.90;;;;;;5099332;28;20032;-72
2021/12/19 03:08:17;;;;;;;26.73;9.60;;;2.20;99.90;;;;;;5100098;28;20039;-72
2021/12/19 03:18:25;;;;;;;25.70;8.82;;;2.20;99.90;;;;;;5100325;28;20042;-71
2021/12/19 03:20:51;;;;;;;23.55;9.23;;;2.20;99.90;;;;;;5099114;28;20452;-71
2021/12/19 03:23:17;;;;;;;24.80;9.77;;;2.20;99.90;;;;;;5100400;28;20047;-71
2021/12/19 03:25:43;;;;;;;29.83;10.38;;;2.10;99.90;;;;;;5100401;28;20031;-71
2021/12/19 03:28:10;;;;;;;27.23;9.88;;;2.10;99.90;;;;;;5098928;28;20489;-72
2021/12/19 03:30:38;;;;;;;27.25;8.85;;;2.10;99.90;;;;;;5098993;28;20031;-72
2021/12/19 03:33:03;;;;;;;26.70;10.20;;;2.10;99.90;;;;;;5082939;28;20045;-72
2021/12/19 03:35:30;;;;;;;28.17;9.48;;;2.10;99.90;;;;;;5079991;28;20025;-72
2021/12/19 03:37:58;;;;;;;26.15;8.63;;;2.10;99.90;;;;;;5079941;28;20067;-72
2021/12/19 03:40:35;;;;;;;22.88;9.25;;;2.10;99.90;;;;;;5079992;28;20024;-71
2021/12/19 03:43:03;;;;;;;20.83;8.80;;;2.10;99.90;;;;;;5061944;28;20111;-71
2021/12/19 03:45:30;;;;;;;24.17;9.15;;;2.10;99.90;;;;;;5079795;28;20049;-71
2021/12/19 03:47:56;;;;;;;28.45;9.13;;;2.10;99.90;;;;;;5079754;28;20469;-71
2021/12/19 03:50:23;;;;;;;22.52;8.68;;;2.10;99.90;;;;;;5061891;28;20060;-71
2021/12/19 03:52:53;;;;;;;27.23;9.50;;;2.10;99.90;;;;;;5079808;28;20445;-71
2021/12/19 03:55:21;;;;;;;17.45;7.25;;;2.10;99.90;;;;;;5061571;28;20025;-71
2021/12/19 03:57:47;;;;;;;20.60;8.35;;;2.10;99.90;;;;;;5062333;28;20028;-72
2021/12/19 04:00:22;;;;;;;21.90;8.43;;;2.10;99.90;;;;;;5061797;28;20112;-72
2021/12/19 04:02:48;;;;;;;24.65;9.15;;;2.10;99.90;;;;;;5062140;28;20427;-71
2021/12/19 04:05:14;;;;;;;26.92;8.95;;;2.10;99.90;;;;;;5060079;28;20020;-72
2021/12/19 04:07:58;;;;;;;27.60;10.05;;;2.10;99.90;;;;;;5076258;28;20495;-72
2021/12/19 04:10:27;;;;;;;23.42;8.70;;;2.00;99.90;;;;;;5076543;28;20059;-71
2021/12/19 04:12:53;;;;;;;;;;;2.10;99.90;;;;;;5058910;28;20036;-71
2021/12/19 04:15:19;;;;;;;24.10;8.25;;;2.00;99.90;;;;;;5076139;28;19905;-72
2021/12/19 04:17:44;;;;;;;23.88;8.38;;;2.10;99.90;;;;;;5076650;28;20029;-72
2021/12/19 04:20:11;;;;;;;20.38;7.57;;;2.10;99.90;;;;;;5058868;28;20158;-72
2021/12/19 04:22:37;;;;;;;24.35;8.63;;;2.10;99.90;;;;;;5058361;28;20056;-72
2021/12/19 04:25:04;;;;;;;17.92;7.43;;;2.10;99.90;;;;;;5058307;28;20020;-71
2021/12/19 04:27:30;;;;;;;18.63;7.43;;;2.10;99.90;;;;;;5058083;28;20113;-72
2021/12/19 04:29:55;;;;;;;23.63;8.38;;;2.10;99.90;;;;;;5058482;28;20103;-71
2021/12/19 04:32:30;;;;;;;21.90;8.38;;;2.10;99.90;;;;;;5076447;28;20050;-71
2021/12/19 04:34:55;;;;;;;21.98;8.13;;;2.10;99.90;;;;;;5096326;28;20028;-71
2021/12/19 04:40:05;;;;;;;23.77;8.25;;;2.10;99.90;;;;;;5096569;28;20101;-72
2021/12/19 04:59:09;;;;;;;25.02;8.15;;;2.10;99.90;;;;;;5096075;28;20055;-72
2021/12/19 05:01:59;;;;;;;18.80;7.53;;;2.10;99.90;;;;;;5095501;28;20107;-71
2021/12/19 05:04:52;;;;;;;17.45;7.05;;;2.10;99.90;;;;;;5095421;28;20036;-71
2021/12/19 05:15:25;;;;;;;17.48;7.22;;;2.10;99.90;;;;;;5095829;28;20086;-71
2021/12/19 05:17:53;;;;;;;17.08;7.55;;;2.20;99.90;;;;;;5093908;28;20063;-71
2021/12/19 05:20:22;;;;;;;19.15;7.38;;;2.20;99.90;;;;;;5095463;28;20016;-71
2021/12/19 05:22:50;;;;;;;13.77;6.65;;;2.10;99.90;;;;;;5095324;28;20020;-71
2021/12/19 05:25:18;;;;;;;20.83;8.07;;;2.10;99.90;;;;;;5095348;28;20031;-71
2021/12/19 05:27:45;;;;;;;21.45;7.70;;;2.10;99.90;;;;;;5093905;28;20275;-71
2021/12/19 05:30:13;;;;;;;19.00;6.75;;;2.10;99.90;;;;;;5093951;28;20028;-72
2021/12/19 05:32:40;;;;;;;17.83;7.13;;;2.10;99.90;;;;;;5081950;28;20457;-71
2021/12/19 05:35:08;;;;;;;20.92;6.72;;;2.10;99.90;;;;;;5074795;28;20070;-71
2021/12/19 05:45:46;;;;;;;21.92;6.85;;;2.10;99.90;;;;;;5074734;28;20039;-71
2021/12/19 05:48:12;;;;;;;16.58;6.65;;;2.10;99.90;;;;;;5056563;28;20028;-71
2021/12/19 05:50:39;;;;;;;16.42;7.13;;;2.10;99.90;;;;;;5074271;28;20035;-71
2021/12/19 05:53:05;;;;;;;21.45;7.35;;;2.10;99.90;;;;;;5056620;28;20024;-71
2021/12/19 05:55:31;;;;;;;16.90;6.45;;;2.10;99.90;;;;;;5074449;28;20029;-71
2021/12/19 05:57:57;;;;;;;16.17;6.93;;;2.10;99.90;;;;;;5056848;28;20032;-71
2021/12/19 06:00:23;;;;;;;18.25;6.85;;;2.10;99.90;;;;;;5056434;28;20020;-71
2021/12/19 06:02:49;;;;;;;18.95;6.28;;;2.10;99.90;;;;;;5056119;28;20031;-72
2021/12/19 06:05:14;;;;;;;15.73;6.63;;;2.10;99.90;;;;;;5074271;28;20029;-71
2021/12/19 06:07:41;;;;;;;14.93;6.18;;;2.10;99.90;;;;;;5056664;28;20032;-72
2021/12/19 06:10:07;;;;;;;17.52;6.68;;;2.10;99.90;;;;;;5074473;28;20103;-71
2021/12/19 06:12:33;;;;;;;15.13;6.65;;;2.10;99.90;;;;;;5074194;28;20090;-71
2021/12/19 06:14:59;;;;;;;22.55;6.35;;;2.10;99.90;;;;;;5056187;28;20471;-72
2021/12/19 06:17:26;;;;;;;17.10;6.35;;;2.10;99.90;;;;;;5074090;28;20028;-71
2021/12/19 06:19:52;;;;;;;19.95;7.55;;;2.10;99.90;;;;;;5056208;28;20457;-71
2021/12/19 06:22:17;;;;;;;16.65;6.85;;;2.10;99.90;;;;;;5056156;28;20028;-71
2021/12/19 06:24:43;;;;;;;18.10;6.72;;;2.10;99.90;;;;;;5073995;28;20028;-71
2021/12/19 06:27:08;;;;;;;22.25;7.43;;;2.10;99.90;;;;;;5074174;28;20099;-72
2021/12/19 06:29:34;;;;;;;17.77;6.20;;;2.10;99.90;;;;;;5055524;28;20102;-71
2021/12/19 06:32:01;;;;;;;14.30;5.10;;;2.10;99.90;;;;;;5073888;28;20090;-71
2021/12/19 06:34:27;;;;;;;17.45;5.07;;;2.10;99.90;;;;;;5055911;28;20095;-71
2021/12/19 06:36:53;;;;;;;14.68;6.35;;;2.10;99.90;;;;;;5073611;28;20046;-71
2021/12/19 06:39:23;;;;;;;13.73;5.43;;;2.10;99.90;;;;;;5073793;28;20028;-71
2021/12/19 06:41:48;;;;;;;17.65;6.78;;;2.10;99.90;;;;;;5073808;28;20025;-71
2021/12/19 06:44:15;;;;;;;18.45;6.57;;;2.20;99.90;;;;;;5073758;28;20067;-71
2021/12/19 06:46:41;;;;;;;13.15;5.35;;;2.20;99.90;;;;;;5056382;28;20081;-71
2021/12/19 06:49:07;;;;;;;15.55;5.47;;;2.20;99.90;;;;;;5073726;28;20115;-71
2021/12/19 06:51:33;;;;;;;10.95;4.85;;;2.30;99.90;;;;;;5073383;28;20036;-71
2021/12/19 06:53:59;;;;;;;10.23;4.68;;;2.30;99.90;;;;;;5073520;28;20364;-71
2021/12/19 06:56:44;;;;;;;11.40;5.25;;;2.30;99.90;;;;;;5073669;28;20154;-71
2021/12/19 06:59:09;;;;;;;10.43;4.50;;;2.30;99.90;;;;;;5073367;28;20032;-72
2021/12/19 07:01:39;;;;;;;11.80;4.28;;;2.40;99.90;;;;;;5055737;28;20384;-71
2021/12/19 07:04:06;;;;;;;12.98;5.07;;;2.40;99.90;;;;;;5055588;28;20111;-70
2021/12/19 07:06:32;;;;;;;12.55;4.80;;;2.50;99.90;;;;;;5073604;28;20028;-71
2021/12/19 07:08:57;;;;;;;10.13;4.20;;;2.50;99.90;;;;;;5055503;28;20082;-71
2021/12/19 07:11:23;;;;;;;12.75;4.25;;;2.50;99.90;;;;;;5055662;28;20029;-71
2021/12/19 07:13:49;;;;;;;13.73;4.57;;;2.50;99.90;;;;;;5073416;28;20473;-71
2021/12/19 07:16:15;;;;;;;13.73;5.35;;;2.60;99.90;;;;;;5073673;28;20024;-72
2021/12/19 07:18:42;;;;;;;10.63;4.47;;;2.60;99.90;;;;;;5073312;28;20376;-72
2021/12/19 07:21:09;;;;;;;7.47;3.83;;;2.60;99.90;;;;;;5073120;28;20372;-70
2021/12/19 07:23:35;;;;;;;9.73;4.65;;;2.60;99.90;;;;;;5074531;28;20074;-72
2021/12/19 07:26:01;;;;;;;11.98;3.67;;;2.60;99.90;;;;;;5074772;28;20095;-71
2021/12/19 07:28:27;;;;;;;10.07;3.30;;;2.70;99.90;;;;;;5074477;28;20372;-71
2021/12/19 07:30:53;;;;;;;9.95;4.18;;;2.70;99.90;;;;;;5073359;28;20024;-69
2021/12/19 07:33:19;;;;;;;9.07;4.68;;;2.70;99.90;;;;;;5073012;28;20048;-69
2021/12/19 07:35:47;;;;;;;10.85;3.63;;;2.70;99.90;;;;;;5073321;28;20047;-69
2021/12/19 07:38:22;;;;;;;8.45;3.67;;;2.70;99.90;;;;;;5055345;28;20028;-69
2021/12/19 07:40:50;;;;;;;5.55;2.85;;;2.70;99.90;;;;;;5057474;28;20029;-72
2021/12/19 07:43:16;;;;;;;6.45;3.05;;;2.70;99.90;;;;;;5077051;28;20078;-74
2021/12/19 07:45:43;;;;;;;9.23;4.25;;;2.70;99.90;;;;;;5058962;28;20040;-70
2021/12/19 07:48:10;;;;;;;9.48;3.90;;;2.70;99.90;;;;;;5058876;28;20032;-69
2021/12/19 07:50:36;;;;;;;11.18;3.53;;;2.70;99.90;;;;;;5077295;28;20047;-68
2021/12/19 07:53:03;;;;;;;10.27;3.67;;;2.70;99.90;;;;;;5058815;28;20028;-68
2021/12/19 07:55:30;;;;;;;7.05;3.47;;;2.70;99.90;;;;;;5076782;28;20029;-69
2021/12/19 07:57:55;;;;;;;9.18;4.28;;;2.70;99.90;;;;;;5076668;28;20036;-69
2021/12/19 08:00:22;;;;;;;7.50;3.38;;;2.80;99.90;;;;;;5076662;28;20103;-70
2021/12/19 08:02:49;;;;;;;7.05;3.03;;;2.80;99.90;;;;;;5076364;28;20414;-70
2021/12/19 08:05:16;;;;;;;6.55;3.40;;;2.80;99.90;;;;;;5076410;28;20036;-71
2021/12/19 08:07:46;;;;;;;9.13;3.63;;;2.80;99.90;;;;;;5076263;28;20434;-70
2021/12/19 08:11:39;;;;;;;8.65;3.55;;;2.90;99.90;;;;;;5076499;28;20071;-78
2021/12/19 08:13:06;;;;;;;7.55;3.35;;;2.90;99.90;;;;;;5076227;28;20120;-71
2021/12/19 08:15:33;;;;;;;6.07;3.25;;;3.00;99.90;;;;;;5076180;28;20032;-71
2021/12/19 08:17:59;;;;;;;8.10;3.17;;;3.00;99.90;;;;;;5058328;28;20456;-72
2021/12/19 08:20:27;;;;;;;7.85;3.53;;;3.10;99.90;;;;;;5058397;28;20064;-72
2021/12/19 08:22:53;;;;;;;7.63;4.00;;;3.20;99.90;;;;;;5076282;28;20460;-72
2021/12/19 08:25:19;;;;;;;9.38;4.10;;;3.20;99.90;;;;;;5076526;28;20025;-71
2021/12/19 08:27:45;;;;;;;6.18;3.35;;;3.30;99.90;;;;;;5076146;28;20028;-71
2021/12/19 08:30:12;;;;;;;6.88;3.47;;;3.50;99.90;;;;;;5076339;28;20103;-73
2021/12/19 08:32:38;;;;;;;9.43;3.85;;;3.90;99.90;;;;;;5075637;28;20048;-73
2021/12/19 08:35:06;;;;;;;9.88;4.03;;;4.20;99.90;;;;;;5058104;28;20024;-72
2021/12/19 08:37:32;;;;;;;7.57;2.88;;;4.40;99.90;;;;;;5058384;28;20033;-71
2021/12/19 08:39:58;;;;;;;5.53;3.03;;;4.80;99.90;;;;;;5075635;28;20028;-72
2021/12/19 08:42:23;;;;;;;8.25;4.20;;;4.80;99.90;;;;;;5076096;28;20032;-70
2021/12/19 08:44:49;;;;;;;9.25;3.88;;;5.00;99.90;;;;;;5075960;28;20025;-71
2021/12/19 08:47:15;;;;;;;9.40;4.10;;;4.90;99.90;;;;;;5075681;28;20052;-70
2021/12/19 08:50:00;;;;;;;9.13;3.72;;;4.80;99.90;;;;;;5075333;28;20033;-70
2021/12/19 08:52:25;;;;;;;9.70;3.40;;;4.90;99.90;;;;;;5074997;28;20028;-70
2021/12/19 08:54:51;;;;;;;5.10;3.42;;;5.10;99.90;;;;;;5075373;28;20093;-70
2021/12/19 08:57:17;;;;;;;7.57;3.25;;;5.10;99.90;;;;;;5057676;28;20123;-70
2021/12/19 08:59:43;;;;;;;6.93;2.88;;;5.30;99.90;;;;;;5075613;28;20050;-71
2021/12/19 09:02:09;;;;;;;6.60;3.00;;;5.60;99.90;;;;;;5075684;28;20063;-73
2021/12/19 09:04:35;;;;;;;5.78;2.92;;;5.60;99.90;;;;;;5057476;28;20020;-69
2021/12/19 09:07:00;;;;;;;4.95;2.63;;;5.50;99.90;;;;;;5075979;28;20361;-67
2021/12/19 09:09:28;;;;;;;6.00;2.40;;;5.60;99.90;;;;;;5075341;28;20476;-76
2021/12/19 09:11:54;;;;;;;7.18;3.00;;;5.70;99.90;;;;;;5057396;28;20028;-72
2021/12/19 09:14:19;;;;;;;7.13;2.50;;;5.70;99.90;;;;;;5057445;28;20032;-71
2021/12/19 09:16:45;;;;;;;6.93;2.80;;;5.60;99.90;;;;;;5075173;28;20047;-68
2021/12/19 09:19:12;;;;;;;5.70;2.83;;;5.70;99.90;;;;;;5075141;28;20024;-71
2021/12/19 09:21:38;;;;;;;4.47;2.67;;;5.80;99.90;;;;;;5056915;28;20035;-68
2021/12/19 09:24:04;;;;;;;6.50;2.47;;;6.00;99.90;;;;;;5075116;28;20025;-68
2021/12/19 09:26:30;;;;;;;4.60;2.55;;;6.10;99.90;;;;;;5056991;28;20051;-72
2021/12/19 09:28:55;;;;;;;5.13;2.30;;;6.00;99.90;;;;;;5075120;28;20064;-73
2021/12/19 09:31:22;;;;;;;5.00;2.30;;;6.20;99.90;;;;;;5075215;28;20108;-74
2021/12/19 09:33:48;;;;;;;6.20;2.50;;;6.70;99.90;;;;;;5074945;28;20025;-68
2021/12/19 09:36:13;;;;;;;4.90;2.40;;;6.60;99.90;;;;;;5075254;28;20036;-71
2021/12/19 09:38:41;;;;;;;6.47;2.55;;;6.30;99.90;;;;;;5074764;28;20086;-71
2021/12/19 09:41:15;;;;;;;5.32;2.63;;;6.30;99.90;;;;;;5074789;28;20021;-71
2021/12/19 09:43:41;;;;;;;5.38;2.65;;;6.00;99.90;;;;;;5074747;28;20020;-70
2021/12/19 09:46:13;;;;;;;5.65;2.17;;;6.10;99.90;;;;;;5074655;28;20032;-72
2021/12/19 09:48:41;;;;;;;5.63;2.20;;;6.50;99.90;;;;;;5074591;28;20032;-73
2021/12/19 09:51:09;;;;;;;4.95;2.65;;;6.40;99.90;;;;;;5056747;28;20040;-70
2021/12/19 09:53:35;;;;;;;5.65;2.70;;;6.40;99.90;;;;;;5056663;28;20033;-70
2021/12/19 09:56:01;;;;;;;5.28;2.58;;;6.30;99.90;;;;;;5074672;28;20052;-70
2021/12/19 09:58:31;;;;;;;6.20;2.60;;;6.20;99.90;;;;;;5074141;28;20028;-69
2021/12/19 10:00:57;;;;;;;3.40;1.70;;;6.20;99.90;;;;;;5074413;28;20104;-69
2021/12/19 10:03:22;;;;;;;3.78;1.85;;;5.90;99.90;;;;;;5073516;28;20052;-70
2021/12/19 10:05:48;;;;;;;4.28;1.90;;;5.70;99.90;;;;;;5056568;28;20024;-68
2021/12/19 10:08:23;;;;;;;2.60;1.75;;;5.60;99.90;;;;;;5074484;28;20364;-67
2021/12/19 10:10:58;;;;;;;3.03;1.98;;;5.40;99.90;;;;;;5055999;28;20099;-68
2021/12/19 10:13:33;;;;;;;5.32;2.03;;;5.40;99.90;;;;;;5056279;28;20425;-65
2021/12/19 10:15:59;;;;;;;6.43;2.03;;;5.40;99.90;;;;;;5056276;28;20416;-64
2021/12/19 10:18:25;;;;;;;3.35;1.52;;;5.40;99.90;;;;;;5074625;28;20372;-63
2021/12/19 10:20:58;;;;;;;4.25;1.70;;;5.50;99.90;;;;;;5073994;28;20028;-64
2021/12/19 10:23:26;;;;;;;2.88;1.23;;;5.60;99.90;;;;;;5073937;28;20020;-65
2021/12/19 10:26:08;;;;;;;1.93;1.20;;;5.70;99.90;;;;;;5074523;28;20120;-68
2021/12/19 10:28:57;;;;;;;3.33;1.45;;;6.40;99.90;;;;;;5055985;28;20282;-69
2021/12/19 10:31:25;;;;;;;1.98;1.20;;;6.60;99.90;;;;;;5073734;28;20210;-72
2021/12/19 10:33:51;;;;;;;3.60;1.85;;;7.00;99.90;;;;;;5073888;28;20028;-73
2021/12/19 10:36:18;;;;;;;4.10;1.40;;;7.00;99.90;;;;;;5073562;28;20040;-72
2021/12/19 10:38:46;;;;;;;1.90;1.10;;;7.10;99.90;;;;;;5073854;28;20025;-76
2021/12/19 10:41:17;;;;;;;1.77;1.15;;;7.20;99.90;;;;;;5073898;28;20035;-73
2021/12/19 10:43:58;;;;;;;2.40;1.08;;;7.30;99.90;;;;;;5073894;28;20039;-72
2021/12/19 10:46:30;;;;;;;2.35;1.25;;;7.30;99.90;;;;;;5056046;28;20032;-75
2021/12/19 10:48:57;;;;;;;2.28;1.23;;;7.40;99.90;;;;;;5073791;28;20097;-75
2021/12/19 10:51:24;;;;;;;3.22;1.55;;;7.70;99.90;;;;;;5055814;28;20032;-67
2021/12/19 10:53:56;;;;;;;3.38;1.27;;;7.10;99.90;;;;;;5055716;28;20447;-65
2021/12/19 10:56:29;;;;;;;1.33;0.90;;;7.00;99.90;;;;;;5056281;28;20024;-66
2021/12/19 10:59:00;;;;;;;3.95;1.70;;;7.20;99.90;;;;;;5055910;28;20094;-66
2021/12/19 11:01:30;;;;;;;5.47;2.03;;;7.40;99.90;;;;;;5073609;28;20060;-66
2021/12/19 11:04:22;;;;;;;3.50;1.95;;;7.40;99.90;;;;;;5055645;28;20028;-66
2021/12/19 11:06:48;;;;;;;3.50;1.70;;;7.60;99.90;;;;;;5073538;28;20350;-66
2021/12/19 11:09:20;;;;;;;4.22;1.85;;;7.80;99.90;;;;;;5072813;28;20085;-66
2021/12/19 11:11:55;;;;;;;3.90;1.90;;;7.80;99.90;;;;;;5073143;28;20488;-66
2021/12/19 11:14:25;;;;;;;3.53;1.92;;;7.60;99.90;;;;;;5074069;28;20103;-66
2021/12/19 11:16:57;;;;;;;3.95;1.58;;;7.70;99.90;;;;;;5077538;28;20056;-66
2021/12/19 11:19:23;;;;;;;3.05;1.45;;;7.60;99.90;;;;;;5077790;28;20039;-67
2021/12/19 11:21:49;;;;;;;2.72;1.45;;;7.50;99.90;;;;;;5077419;28;20025;-66
2021/12/19 11:24:18;;;;;;;2.85;1.70;;;7.50;99.90;;;;;;5077121;28;20029;-67
2021/12/19 11:26:46;;;;;;;4.00;2.47;;;7.60;99.90;;;;;;5077381;28;20107;-67
2021/12/19 11:29:13;;;;;;;2.90;1.50;;;7.50;99.90;;;;;;5076926;28;20435;-66
2021/12/19 11:31:41;;;;;;;5.32;1.88;;;7.40;99.90;;;;;;5077397;28;20445;-67
2021/12/19 11:34:14;;;;;;;2.83;1.77;;;7.30;99.90;;;;;;5077318;28;20029;-68
2021/12/19 11:36:44;;;;;;;2.65;1.33;;;7.40;99.90;;;;;;5077176;28;20101;-68
2021/12/19 11:39:10;;;;;;;6.63;1.83;;;7.40;99.90;;;;;;5077040;28;20457;-67
2021/12/19 11:41:36;;;;;;;4.22;1.75;;;7.20;99.90;;;;;;5059066;28;20029;-67
2021/12/19 11:44:06;;;;;;;6.20;2.15;;;7.40;99.90;;;;;;5076963;28;20035;-65
2021/12/19 11:46:52;;;;;;;3.50;2.40;;;7.30;99.90;;;;;;5076999;28;20115;-68
2021/12/19 11:49:22;;;;;;;4.53;1.77;;;7.60;99.90;;;;;;5076551;28;20507;-65
2021/12/19 11:51:49;;;;;;;3.28;1.48;;;7.80;99.90;;;;;;5058979;28;20477;-68
2021/12/19 11:54:19;;;;;;;3.92;1.80;;;7.50;99.90;;;;;;5076760;28;20107;-66
2021/12/19 11:57:10;;;;;;;3.00;1.67;;;7.50;99.90;;;;;;5058749;28;20115;-66
2021/12/19 11:59:38;;;;;;;9.85;6.45;;;7.90;99.90;;;;;;5058704;28;20067;-66
2021/12/19 12:02:24;;;;;;;2.70;1.80;;;8.00;99.90;;;;;;5076657;28;20028;-66
2021/12/19 12:05:21;;;;;;;3.47;1.58;;;7.90;99.90;;;;;;5076845;28;20114;-65
2021/12/19 12:08:04;;;;;;;2.72;1.50;;;8.50;99.90;;;;;;5076656;28;20036;-66
2021/12/19 12:10:52;;;;;;;2.55;1.50;;;8.10;99.90;;;;;;5076527;28;20043;-66
2021/12/19 12:13:22;;;;;;;2.33;1.50;;;7.90;99.90;;;;;;5076465;28;20027;-66
2021/12/19 12:15:51;;;;;;;1.70;1.35;;;7.70;99.90;;;;;;5076457;28;20028;-66
2021/12/19 12:18:43;;;;;;;3.20;1.55;;;7.80;99.90;;;;;;5076478;28;20024;-65
2021/12/19 12:21:34;;;;;;;2.38;1.15;;;7.50;99.90;;;;;;5071729;28;20390;-67
2021/12/19 12:24:06;;;;;;;1.13;0.82;;;7.80;99.90;;;;;;5058401;28;20434;-66
2021/12/19 12:26:44;;;;;;;2.88;1.30;;;7.90;99.90;;;;;;5075065;28;20024;-65
2021/12/19 12:29:11;;;;;;;2.75;1.58;;;7.80;99.90;;;;;;5076147;28;20029;-66
2021/12/19 12:31:37;;;;;;;1.92;1.25;;;7.80;99.90;;;;;;5075961;28;20076;-66
2021/12/19 12:34:06;;;;;;;1.45;1.35;;;7.60;99.90;;;;;;5076234;28;20091;-67
2021/12/19 12:36:32;;;;;;;2.88;1.40;;;7.40;99.90;;;;;;5076120;28;20023;-67
2021/12/19 12:38:58;;;;;;;2.53;1.20;;;7.20;99.90;;;;;;5076057;28;20028;-67
2021/12/19 12:41:47;;;;;;;1.90;0.93;;;7.40;99.90;;;;;;5075981;28;20021;-67
2021/12/19 12:44:18;;;;;;;2.40;1.05;;;7.20;99.90;;;;;;5076099;28;20029;-68
2021/12/19 12:46:44;;;;;;;2.88;1.42;;;7.30;99.90;;;;;;5076101;28;20024;-68
2021/12/19 12:49:16;;;;;;;2.70;1.13;;;7.40;99.90;;;;;;5075382;28;20086;-67
2021/12/19 12:51:57;;;;;;;1.50;1.10;;;7.30;99.90;;;;;;5076127;28;20051;-67
2021/12/19 12:54:33;;;;;;;1.35;0.80;;;7.20;99.90;;;;;;5075709;28;20025;-67
2021/12/19 12:57:02;;;;;;;2.90;1.27;;;7.10;99.90;;;;;;5075743;28;20046;-67
2021/12/19 12:59:30;;;;;;;2.40;1.13;;;6.80;99.90;;;;;;5075159;28;20032;-67
2021/12/19 13:02:14;;;;;;;1.73;1.02;;;6.50;99.90;;;;;;5057614;28;20033;-67
2021/12/19 13:04:43;;;;;;;2.67;1.25;;;6.40;99.90;;;;;;5057697;28;20024;-67
2021/12/19 13:07:11;;;;;;;3.28;1.15;;;6.30;99.90;;;;;;5075197;28;20028;-67
2021/12/19 13:10:06;;;;;;;1.75;0.98;;;6.40;99.90;;;;;;5075361;28;20545;-67
2021/12/19 13:12:37;;;;;;;1.85;1.08;;;6.50;99.90;;;;;;5052571;28;20028;-67
2021/12/19 13:15:10;;;;;;;4.97;1.52;;;6.40;99.90;;;;;;5075261;28;20377;-67
2021/12/19 13:17:45;;;;;;;2.13;1.27;;;6.40;99.90;;;;;;5057554;28;20532;-67
2021/12/19 13:20:25;;;;;;;4.25;1.60;;;6.20;99.90;;;;;;5057262;28;20024;-67
2021/12/19 13:22:52;;;;;;;4.05;1.42;;;6.00;99.90;;;;;;5075509;28;20024;-67
2021/12/19 13:25:22;;;;;;;2.63;1.55;;;5.70;99.90;;;;;;5075062;28;20028;-67
2021/12/19 13:28:07;;;;;;;2.60;1.33;;;5.60;99.90;;;;;;5075467;28;20372;-67
2021/12/19 13:30:35;;;;;;;1.95;1.42;;;5.20;99.90;;;;;;5075421;28;20457;-67
2021/12/19 13:33:07;;;;;;;3.70;1.70;;;4.90;99.90;;;;;;5074731;28;20045;-66
2021/12/19 13:35:43;;;;;;;3.15;1.98;;;4.70;99.90;;;;;;5057081;28;20296;-66
2021/12/19 13:38:12;;;;;;;2.88;1.42;;;4.40;99.90;;;;;;5074899;28;20025;-66
2021/12/19 13:40:47;;;;;;;2.83;1.80;;;4.30;99.90;;;;;;5074796;28;20020;-66
2021/12/19 13:43:20;;;;;;;5.65;1.52;;;4.20;99.90;;;;;;5074552;28;20054;-67
2021/12/19 13:45:50;;;;;;;3.22;2.10;;;4.20;99.90;;;;;;5074447;28;20110;-66
2021/12/19 13:48:19;;;;;;;2.83;1.45;;;4.10;99.90;;;;;;5074915;28;20095;-66
2021/12/19 13:50:53;;;;;;;5.82;1.63;;;4.10;99.90;;;;;;5056608;28;20062;-66
2021/12/19 13:53:19;;;;;;;4.85;2.17;;;4.00;99.90;;;;;;5074259;28;20383;-67
2021/12/19 13:55:56;;;;;;;3.50;1.83;;;4.00;99.90;;;;;;5074547;28;20032;-66
2021/12/19 13:58:26;;;;;;;4.70;2.17;;;4.00;99.90;;;;;;5074235;28;20031;-76
2021/12/19 14:00:54;;;;;;;3.72;2.10;;;3.90;99.90;;;;;;5074489;28;20020;-66
2021/12/19 14:03:41;;;;;;;4.55;2.50;;;3.90;99.90;;;;;;5056402;28;20124;-67
2021/12/19 14:06:07;;;;;;;5.32;2.40;;;3.90;99.90;;;;;;5056388;28;20403;-67